createdAt,value
2022-09-02T00:01:24.346Z,99860.09
2022-09-02T00:03:52.787Z,99860.72
2022-09-02T00:06:19.652Z,99848.66
2022-09-02T00:08:46.810Z,99864.63
2022-09-02T00:11:17.120Z,99835.66
2022-09-02T00:13:45.422Z,99857.25
2022-09-02T00:16:12.951Z,99855.72
2022-09-02T00:18:45.761Z,99827.94
2022-09-02T00:21:14.622Z,99848.38
2022-09-02T00:23:43.405Z,99847.19
2022-09-02T00:26:10.869Z,99850.09
2022-09-02T00:28:38.281Z,99839.84
2022-09-02T00:31:05.882Z,99847.66
2022-09-02T00:33:32.648Z,99840.22
2022-09-02T00:36:01.344Z,99834.34
2022-09-02T00:38:29.314Z,99850.19
2022-09-02T00:40:56.104Z,99844.69
2022-09-02T00:43:47.550Z,99838.59
2022-09-02T00:46:17.717Z,99843.72
2022-09-02T00:49:24.171Z,99844.97
2022-09-02T00:51:59.679Z,99843.59
2022-09-02T00:54:30.530Z,99814.84
2022-09-02T00:56:58.384Z,99820.19
2022-09-02T00:59:34.891Z,99804.28
2022-09-02T01:02:01.751Z,99833.13
2022-09-02T01:04:29.281Z,99808.66
2022-09-02T01:06:56.738Z,99832.81
2022-09-02T01:09:23.586Z,99831.19
2022-09-02T01:11:55.151Z,99814.25
2022-09-02T01:14:22.141Z,99822.28
2022-09-02T01:16:54.249Z,99806.97
2022-09-02T01:19:22.984Z,99838.28
2022-09-02T01:21:52.806Z,99826.81
2022-09-02T01:24:21.410Z,99842.44
2022-09-02T01:26:51.579Z,99829.09
2022-09-02T01:29:20.423Z,99814.66
2022-09-02T01:31:47.182Z,99832.69
2022-09-02T01:34:14.952Z,99833.53
2022-09-02T01:36:43.434Z,99844.00
2022-09-02T01:39:12.546Z,99832.13
2022-09-02T01:41:39.351Z,99794.03
2022-09-02T01:44:07.499Z,99836.66
2022-09-02T01:46:35.278Z,99827.44
2022-09-02T01:49:02.735Z,99828.53
2022-09-02T01:51:29.672Z,99838.56
2022-09-02T01:53:56.472Z,99831.78
2022-09-02T01:56:23.647Z,99833.69
2022-09-02T01:58:52.736Z,99835.75
2022-09-02T02:01:19.874Z,99812.25
2022-09-02T02:03:47.400Z,99828.00
2022-09-02T02:06:17.543Z,99834.38
2022-09-02T02:08:45.351Z,99812.34
2022-09-02T02:11:18.640Z,99824.41
2022-09-02T02:13:49.769Z,99834.03
2022-09-02T02:16:17.093Z,99809.91
2022-09-02T02:18:43.946Z,99818.69
2022-09-02T02:21:11.241Z,99828.72
2022-09-02T02:23:38.358Z,99826.94
2022-09-02T02:26:06.795Z,99835.09
2022-09-02T02:28:33.650Z,99826.47
2022-09-02T02:31:02.919Z,99805.34
2022-09-02T02:33:36.233Z,99816.94
2022-09-02T02:36:06.849Z,99821.28
2022-09-02T02:38:34.863Z,99819.88
2022-09-02T02:41:03.008Z,99839.81
2022-09-02T02:43:29.813Z,99836.53
2022-09-02T02:45:57.123Z,99831.84
2022-09-02T02:48:24.224Z,99808.53
2022-09-02T02:50:51.066Z,99805.25
2022-09-02T02:53:19.312Z,99799.31
2022-09-02T02:55:49.871Z,99848.09
2022-09-02T02:58:17.684Z,99834.28
2022-09-02T03:00:46.217Z,99816.13
2022-09-02T03:03:16.751Z,99830.84
2022-09-02T03:05:44.238Z,99820.44
2022-09-02T03:08:11.836Z,99831.06
2022-09-02T03:10:41.046Z,99834.56
2022-09-02T03:13:11.552Z,99828.38
2022-09-02T03:15:39.465Z,99805.53
2022-09-02T03:18:06.448Z,99800.47
2022-09-02T03:20:33.688Z,99797.09
2022-09-02T03:23:04.667Z,99834.84
2022-09-02T03:25:36.086Z,99834.28
2022-09-02T03:28:10.316Z,99832.09
2022-09-02T03:30:39.567Z,99835.44
2022-09-02T03:33:07.357Z,99827.28
2022-09-02T03:35:40.164Z,99838.34
2022-09-02T03:38:09.157Z,99841.03
2022-09-02T03:40:36.919Z,99835.09
2022-09-02T03:43:04.434Z,99836.53
2022-09-02T03:45:32.245Z,99827.56
2022-09-02T03:48:04.535Z,99847.25
2022-09-02T03:50:39.824Z,99823.06
2022-09-02T03:53:09.318Z,99839.25
2022-09-02T03:55:45.218Z,99837.19
2022-09-02T03:58:13.688Z,99837.16
2022-09-02T04:00:41.472Z,99827.31
2022-09-02T04:03:08.322Z,99836.72
2022-09-02T04:05:35.229Z,99816.63
2022-09-02T04:08:02.335Z,99815.78
2022-09-02T04:10:30.033Z,99834.00
2022-09-02T04:12:57.539Z,99837.47
2022-09-02T04:15:25.160Z,99832.16
2022-09-02T04:18:48.477Z,99838.72
2022-09-02T04:21:52.686Z,99801.25
2022-09-02T04:24:19.737Z,99825.53
2022-09-02T04:26:49.279Z,99832.88
2022-09-02T04:29:18.129Z,99832.03
2022-09-02T04:31:47.052Z,99835.03
2022-09-02T04:34:13.894Z,99838.75
2022-09-02T04:36:41.876Z,99843.69
2022-09-02T04:39:11.342Z,99840.66
2022-09-02T04:41:38.649Z,99836.59
2022-09-02T04:44:08.642Z,99825.72
2022-09-02T04:46:41.271Z,99791.69
2022-09-02T04:49:12.753Z,99833.91
2022-09-02T04:51:41.246Z,99822.44
2022-09-02T04:54:10.020Z,99816.28
2022-09-02T04:56:38.876Z,99834.13
2022-09-02T04:59:07.878Z,99808.28
2022-09-02T05:01:37.520Z,99839.63
2022-09-02T05:04:10.990Z,99816.69
2022-09-02T05:06:47.229Z,99833.72
2022-09-02T05:09:18.843Z,99836.41
2022-09-02T05:11:51.990Z,99845.63
2022-09-02T05:14:23.588Z,99842.56
2022-09-02T05:16:53.960Z,99837.25
2022-09-02T05:19:23.699Z,99844.41
2022-09-02T05:21:53.868Z,99835.59
2022-09-02T05:24:56.792Z,99827.00
2022-09-02T05:27:23.585Z,99835.19
2022-09-02T05:29:59.480Z,99832.91
2022-09-02T05:32:27.782Z,99849.53
2022-09-02T05:34:56.307Z,99815.50
2022-09-02T05:37:26.362Z,99855.91
2022-09-02T05:39:53.653Z,99845.84
2022-09-02T05:42:21.169Z,99838.28
2022-09-02T05:44:51.150Z,99826.34
2022-09-02T05:47:20.563Z,99843.38
2022-09-02T05:49:48.058Z,99853.19
2022-09-02T05:52:17.603Z,99821.44
2022-09-02T05:54:49.321Z,99848.28
2022-09-02T05:57:18.741Z,99855.63
2022-09-02T06:00:08.260Z,99845.38
2022-09-02T06:02:42.070Z,99843.72
2022-09-02T06:05:13.399Z,99822.38
2022-09-02T06:07:46.129Z,99839.16
2022-09-02T06:10:13.049Z,99837.94
2022-09-02T06:12:42.731Z,99842.78
2022-09-02T06:15:10.960Z,99833.88
2022-09-02T06:17:40.170Z,99815.28
2022-09-02T06:20:09.375Z,99834.84
2022-09-02T06:22:39.659Z,99836.22
2022-09-02T06:25:08.050Z,99827.00
2022-09-02T06:27:34.903Z,99833.44
2022-09-02T06:30:02.477Z,99834.09
2022-09-02T06:32:30.125Z,99840.66
2022-09-02T06:35:02.323Z,99831.16
2022-09-02T06:37:33.178Z,99802.50
2022-09-02T06:40:00.132Z,99828.38
2022-09-02T06:42:28.379Z,99834.13
2022-09-02T06:45:18.106Z,99832.97
2022-09-02T06:47:46.001Z,99831.81
2022-09-02T06:50:13.299Z,99836.34
2022-09-02T06:52:41.020Z,99801.03
2022-09-02T06:55:09.039Z,99827.13
2022-09-02T06:57:35.917Z,99827.69
2022-09-02T07:00:10.079Z,99813.09
2022-09-02T07:02:38.297Z,99828.22
2022-09-02T07:05:15.210Z,99801.66
2022-09-02T07:07:45.896Z,99811.03
2022-09-02T07:10:14.787Z,99833.41
2022-09-02T07:12:45.540Z,99831.59
2022-09-02T07:15:16.169Z,99820.81
2022-09-02T07:17:44.056Z,99827.88
2022-09-02T07:20:20.257Z,99816.81
2022-09-02T07:22:52.275Z,99806.78
2022-09-02T07:25:20.653Z,99787.59
2022-09-02T07:27:51.293Z,99813.09
2022-09-02T07:30:18.529Z,99810.47
2022-09-02T07:32:47.915Z,99791.50
2022-09-02T07:35:16.458Z,99779.69
2022-09-02T07:37:44.926Z,99781.41
2022-09-02T07:40:14.415Z,99785.66
2022-09-02T07:42:43.423Z,99780.84
2022-09-02T07:45:15.875Z,99724.44
2022-09-02T07:47:49.472Z,99799.41
2022-09-02T07:50:20.120Z,99721.94
2022-09-02T07:52:54.004Z,99795.22
2022-09-02T07:55:22.138Z,99753.16
2022-09-02T07:57:50.753Z,99769.13
2022-09-02T08:00:20.599Z,99807.13
2022-09-02T08:02:50.219Z,99790.41
2022-09-02T08:05:22.752Z,99789.28
2022-09-02T08:07:49.611Z,99805.28
2022-09-02T08:10:17.220Z,99782.72
2022-09-02T08:12:45.102Z,99782.25
2022-09-02T08:15:17.589Z,99799.91
2022-09-02T08:17:44.730Z,99771.13
2022-09-02T08:20:12.950Z,99801.75
2022-09-02T08:22:40.243Z,99795.88
2022-09-02T08:25:09.304Z,99777.50
2022-09-02T08:27:37.153Z,99792.38
2022-09-02T08:30:05.599Z,99796.97
2022-09-02T08:32:32.907Z,99776.38
2022-09-02T08:35:02.708Z,99788.25
2022-09-02T08:37:31.455Z,99779.63
2022-09-02T08:39:58.742Z,99786.66
2022-09-02T08:42:32.835Z,99775.41
2022-09-02T08:45:18.546Z,99776.69
2022-09-02T08:47:50.564Z,99774.91
2022-09-02T08:50:19.632Z,99780.34
2022-09-02T08:53:09.773Z,99770.81
2022-09-02T08:55:55.598Z,99736.66
2022-09-02T08:58:27.922Z,99764.09
2022-09-02T09:01:09.678Z,99763.72
2022-09-02T09:04:04.776Z,99764.75
2022-09-02T09:06:59.663Z,99759.63
2022-09-02T09:09:52.791Z,99761.81
2022-09-02T09:12:25.305Z,99752.13
2022-09-02T09:15:05.426Z,99747.03
2022-09-02T09:17:58.085Z,99749.34
2022-09-02T09:20:31.136Z,99746.50
2022-09-02T09:23:00.898Z,99721.31
2022-09-02T09:25:33.653Z,99733.22
2022-09-02T09:28:01.433Z,99717.72
2022-09-02T09:30:29.292Z,99733.56
2022-09-02T09:32:59.926Z,99735.88
2022-09-02T09:35:29.042Z,99733.75
2022-09-02T09:37:56.644Z,99728.66
2022-09-02T09:40:32.658Z,99725.41
2022-09-02T09:43:05.974Z,99725.59
2022-09-02T09:45:45.839Z,99719.66
2022-09-02T09:48:32.549Z,99732.63
2022-09-02T09:50:59.291Z,99718.66
2022-09-02T09:53:27.148Z,99717.69
2022-09-02T09:56:12.340Z,99711.94
2022-09-02T09:58:39.117Z,99712.06
2022-09-02T10:01:15.113Z,99714.28
2022-09-02T10:04:04.935Z,99679.22
2022-09-02T10:06:33.732Z,99706.22
2022-09-02T10:09:18.672Z,99696.22
2022-09-02T10:12:05.535Z,99692.19
2022-09-02T10:14:38.243Z,99695.72
2022-09-02T10:17:23.872Z,99683.66
2022-09-02T10:20:08.134Z,99675.47
2022-09-02T10:23:09.015Z,99685.94
2022-09-02T10:25:56.190Z,99698.97
2022-09-02T10:28:53.886Z,99677.66
2022-09-02T10:32:02.554Z,99663.25
2022-09-02T10:34:35.138Z,99676.03
2022-09-02T10:37:04.637Z,99667.28
2022-09-02T10:39:49.717Z,99662.31
2022-09-02T10:42:32.975Z,99663.75
2022-09-02T10:46:01.396Z,99665.63
2022-09-02T10:48:55.172Z,99660.41
2022-09-02T10:51:38.649Z,99634.97
2022-09-02T10:54:20.694Z,99644.06
2022-09-02T10:57:04.362Z,99637.78
2022-09-02T10:59:34.987Z,99644.13
2022-09-02T11:02:09.052Z,99644.66
2022-09-02T11:04:46.133Z,99620.47
2022-09-02T11:07:23.771Z,99627.16
2022-09-02T11:09:59.137Z,99631.09
2022-09-02T11:12:28.523Z,99628.31
2022-09-02T11:15:22.586Z,99620.63
2022-09-02T11:18:26.916Z,99607.25
2022-09-02T11:21:03.925Z,99609.38
2022-09-02T11:23:46.537Z,99612.78
2022-09-02T11:26:21.061Z,99609.22
2022-09-02T11:29:07.192Z,99598.38
2022-09-02T11:31:46.213Z,99594.69
2022-09-02T11:34:37.048Z,99601.41
2022-09-02T11:37:31.091Z,99592.53
2022-09-02T11:40:30.493Z,99589.38
2022-09-02T11:43:16.626Z,99597.31
2022-09-02T11:46:14.409Z,99586.25
2022-09-02T11:49:26.226Z,99583.31
2022-09-02T11:52:18.731Z,99593.19
2022-09-02T11:54:49.134Z,99579.69
2022-09-02T11:57:22.192Z,99575.09
2022-09-02T11:59:51.951Z,99586.84
2022-09-02T12:02:47.180Z,99579.28
2022-09-02T12:05:32.681Z,99582.75
2022-09-02T12:08:04.556Z,99578.47
2022-09-02T12:10:47.741Z,99597.69
2022-09-02T12:13:37.360Z,99595.44
2022-09-02T12:16:17.030Z,99582.22
2022-09-02T12:18:46.247Z,99584.50
2022-09-02T12:21:16.575Z,99566.88
2022-09-02T12:23:58.391Z,99576.25
2022-09-02T12:26:50.922Z,99589.34
2022-09-02T12:29:18.383Z,99576.91
2022-09-02T12:31:47.940Z,99569.16
2022-09-02T12:34:21.120Z,99563.31
2022-09-02T12:36:57.667Z,99561.63
2022-09-02T12:39:27.529Z,99559.09
2022-09-02T12:41:57.709Z,99549.22
2022-09-02T12:44:24.426Z,99549.88
2022-09-02T12:47:00.170Z,99552.47
2022-09-02T12:49:38.911Z,99535.00
2022-09-02T12:52:32.729Z,99535.00
2022-09-02T12:55:04.933Z,99533.47
2022-09-02T12:57:54.539Z,99537.94
2022-09-02T13:01:00.578Z,99529.56
2022-09-02T13:03:34.070Z,99522.88
2022-09-02T13:06:34.683Z,99520.72
2022-09-02T13:09:30.795Z,99514.84
2022-09-02T13:12:22.399Z,99526.63
2022-09-02T13:15:23.142Z,99516.44
2022-09-02T13:18:18.052Z,99506.41
2022-09-02T13:20:56.019Z,99511.03
2022-09-02T13:23:38.770Z,99498.50
2022-09-02T13:26:32.934Z,99503.72
2022-09-02T13:29:16.689Z,99496.34
2022-09-02T13:32:24.368Z,99479.53
2022-09-02T13:34:55.208Z,99490.81
2022-09-02T13:37:38.387Z,99486.09
2022-09-02T13:40:18.066Z,99480.75
2022-09-02T13:42:58.707Z,99481.31
2022-09-02T13:45:27.513Z,99468.53
2022-09-02T13:48:06.710Z,99476.84
2022-09-02T13:50:35.327Z,99476.34
2022-09-02T13:53:45.645Z,99462.88
2022-09-02T13:55:55.338Z,99463.06
2022-09-02T13:58:37.826Z,99463.47
2022-09-02T14:01:29.795Z,99438.78
2022-09-02T14:03:59.452Z,99442.91
2022-09-02T14:06:36.183Z,99447.09
2022-09-02T14:09:25.769Z,99447.78
2022-09-02T14:11:53.945Z,99422.59
2022-09-02T14:14:24.174Z,99443.50
2022-09-02T14:16:52.745Z,99416.50
2022-09-02T14:19:22.456Z,99425.56
2022-09-02T14:21:58.674Z,99413.56
2022-09-02T14:24:30.683Z,99427.25
2022-09-02T14:27:00.404Z,99383.84
2022-09-02T14:29:29.953Z,99409.47
2022-09-02T14:32:23.393Z,99406.94
2022-09-02T14:35:17.363Z,99414.19
2022-09-02T14:37:53.783Z,99397.72
2022-09-02T14:40:44.893Z,99410.03
2022-09-02T14:43:14.934Z,99398.53
2022-09-02T14:45:47.800Z,99380.94
2022-09-02T14:48:26.574Z,99391.75
2022-09-02T14:51:06.933Z,99357.81
2022-09-02T14:53:37.440Z,99390.97
2022-09-02T14:56:05.871Z,99390.91
2022-09-02T14:58:32.877Z,99373.38
2022-09-02T15:01:01.577Z,99390.81
2022-09-02T15:03:31.812Z,99385.94
2022-09-02T15:05:58.691Z,99386.53
2022-09-02T15:08:25.884Z,99382.78
2022-09-02T15:10:54.705Z,99390.19
2022-09-02T15:13:40.153Z,99384.88
2022-09-02T15:16:06.921Z,99395.66
2022-09-02T15:18:33.707Z,99398.22
2022-09-02T15:21:00.652Z,99391.69
2022-09-02T15:23:32.531Z,99364.75
2022-09-02T15:26:01.554Z,99366.38
2022-09-02T15:28:29.923Z,99374.78
2022-09-02T15:31:01.520Z,99376.97
2022-09-02T15:33:29.056Z,99379.19
2022-09-02T15:36:05.847Z,99378.81
2022-09-02T15:38:33.040Z,99370.66
2022-09-02T15:41:18.171Z,99383.03
2022-09-02T15:43:47.650Z,99366.94
2022-09-02T15:46:19.678Z,99382.53
2022-09-02T15:48:47.973Z,99380.94
2022-09-02T15:51:17.297Z,99372.88
2022-09-02T15:53:44.479Z,99372.97
2022-09-02T15:56:25.812Z,99374.88
2022-09-02T15:58:59.906Z,99378.34
2022-09-02T16:01:28.504Z,99376.75
2022-09-02T16:03:55.941Z,99318.59
2022-09-02T16:06:22.710Z,99357.88
2022-09-02T16:08:49.712Z,99388.81
2022-09-02T16:11:17.644Z,99386.69
2022-09-02T16:13:45.407Z,99370.25
2022-09-02T16:16:13.969Z,99383.81
2022-09-02T16:18:42.163Z,99389.63
2022-09-02T16:21:11.332Z,99388.31
2022-09-02T16:23:38.385Z,99379.22
2022-09-02T16:26:42.320Z,99382.34
2022-09-02T16:29:13.661Z,99373.00
2022-09-02T16:31:42.426Z,99350.88
2022-09-02T16:34:18.271Z,99372.38
2022-09-02T16:36:47.844Z,99376.91
2022-09-02T16:39:15.370Z,99372.31
2022-09-02T16:41:45.806Z,99386.94
2022-09-02T16:44:16.110Z,99382.53
2022-09-02T16:46:44.088Z,99381.91
2022-09-02T16:49:13.702Z,99373.19
2022-09-02T16:51:41.028Z,99357.88
2022-09-02T16:54:09.494Z,99371.16
2022-09-02T16:56:44.891Z,99369.84
2022-09-02T16:59:12.821Z,99365.44
2022-09-02T17:01:40.539Z,99365.25
2022-09-02T17:04:08.778Z,99372.88
2022-09-02T17:06:41.320Z,99374.47
2022-09-02T17:09:09.100Z,99363.00
2022-09-02T17:11:39.604Z,99378.06
2022-09-02T17:14:17.635Z,99367.31
2022-09-02T17:16:47.839Z,99371.50
2022-09-02T17:19:20.988Z,99345.47
2022-09-02T17:21:53.194Z,99365.97
2022-09-02T17:24:23.077Z,99351.19
2022-09-02T17:26:52.161Z,99367.16
2022-09-02T17:32:09.551Z,99368.34
2022-09-02T17:34:36.913Z,99370.28
2022-09-02T17:37:05.173Z,99370.13
2022-09-02T17:39:33.846Z,99379.47
2022-09-02T17:42:01.798Z,99352.59
2022-09-02T17:44:35.336Z,99373.50
2022-09-02T17:47:06.620Z,99373.81
2022-09-02T17:49:36.592Z,99378.13
2022-09-02T17:52:05.464Z,99367.56
2022-09-02T17:54:32.983Z,99364.78
2022-09-02T17:57:09.652Z,99372.72
2022-09-02T17:59:59.013Z,99367.91
2022-09-02T18:02:47.937Z,99363.09
2022-09-02T18:05:46.962Z,99365.31
2022-09-02T18:08:23.044Z,99365.91
2022-09-02T18:10:52.816Z,99364.06
2022-09-02T18:13:54.742Z,99362.75
2022-09-02T18:16:29.740Z,99343.84
2022-09-02T18:19:13.434Z,99365.44
2022-09-02T18:21:47.532Z,99359.25
2022-09-02T18:24:43.593Z,99368.97
2022-09-02T18:27:39.167Z,99368.19
2022-09-02T18:30:12.738Z,99366.81
2022-09-02T18:32:45.750Z,99364.94
2022-09-02T18:35:40.655Z,99369.81
2022-09-02T18:38:10.373Z,99378.16
2022-09-02T18:40:44.212Z,99379.25
2022-09-02T18:43:19.766Z,99361.19
2022-09-02T18:45:54.646Z,99381.69
2022-09-02T18:48:27.819Z,99383.56
2022-09-02T18:51:01.215Z,99360.56
2022-09-02T18:53:32.202Z,99384.59
2022-09-02T18:56:05.869Z,99383.50
2022-09-02T18:58:47.447Z,99388.91
2022-09-02T19:01:21.718Z,99395.38
2022-09-02T19:03:48.615Z,99399.38
2022-09-02T19:06:21.474Z,99408.81
2022-09-02T19:08:54.478Z,99400.19
2022-09-02T19:11:23.273Z,99406.91
2022-09-02T19:13:53.457Z,99414.44
2022-09-02T19:16:26.094Z,99410.66
2022-09-02T19:18:53.202Z,99415.22
2022-09-02T19:21:50.034Z,99419.53
2022-09-02T19:24:23.962Z,99424.06
2022-09-02T19:26:54.471Z,99386.72
2022-09-02T19:29:22.529Z,99394.53
2022-09-02T19:31:54.608Z,99412.06
2022-09-02T19:34:22.816Z,99418.81
2022-09-02T19:36:52.635Z,99415.03
2022-09-02T19:39:19.528Z,99417.72
2022-09-02T19:41:48.956Z,99413.91
2022-09-02T19:44:17.434Z,99396.00
2022-09-02T19:47:30.797Z,99421.47
2022-09-02T19:49:31.059Z,99421.69
2022-09-02T19:51:58.665Z,99415.47
2022-09-02T19:54:26.509Z,99399.97
2022-09-02T19:56:53.324Z,99404.53
2022-09-02T19:59:20.150Z,99388.59
2022-09-02T20:01:46.963Z,99421.53
2022-09-02T20:04:13.929Z,99410.75
2022-09-02T20:06:40.720Z,99416.94
2022-09-02T20:09:07.560Z,99405.25
2022-09-02T20:11:35.093Z,99412.31
2022-09-02T20:14:04.416Z,99407.94
2022-09-02T20:16:32.949Z,99398.47
2022-09-02T20:18:59.834Z,99418.00
2022-09-02T20:21:46.005Z,99418.25
2022-09-02T20:24:20.606Z,99414.69
2022-09-02T20:27:06.868Z,99403.84
2022-09-02T20:29:52.496Z,99419.50
2022-09-02T20:32:37.201Z,99417.06
2022-09-02T20:35:22.939Z,99412.75
2022-09-02T20:38:02.973Z,99406.81
2022-09-02T20:40:56.265Z,99409.72
2022-09-02T20:43:40.949Z,99402.38
2022-09-02T20:46:28.025Z,99398.88
2022-09-02T20:49:13.329Z,99408.81
2022-09-02T20:51:56.344Z,99380.69
2022-09-02T20:54:54.847Z,99409.31
2022-09-02T20:57:33.616Z,99403.09
2022-09-02T21:00:12.329Z,99407.69
2022-09-02T21:02:55.700Z,99408.50
2022-09-02T21:05:28.317Z,99408.69
2022-09-02T21:08:03.808Z,99416.75
2022-09-02T21:10:39.220Z,99406.78
2022-09-02T21:13:15.430Z,99406.47
2022-09-02T21:15:48.753Z,99404.34
2022-09-02T21:18:26.230Z,99397.03
2022-09-02T21:21:01.803Z,99405.91
2022-09-02T21:23:38.478Z,99398.09
2022-09-02T21:26:23.403Z,99376.94
2022-09-02T21:28:52.608Z,99399.69
2022-09-02T21:31:33.059Z,99375.00
2022-09-02T21:34:07.019Z,99395.81
2022-09-02T21:36:38.351Z,99403.06
2022-09-02T21:39:15.562Z,99399.53
2022-09-02T21:41:47.748Z,99386.50
2022-09-02T21:44:27.763Z,99393.34
2022-09-02T21:47:11.697Z,99398.72
2022-09-02T21:50:06.437Z,99397.66
2022-09-02T21:52:39.183Z,99395.72
2022-09-02T21:55:38.089Z,99393.81
2022-09-02T21:58:23.382Z,99397.56
2022-09-02T22:01:02.412Z,99393.25
2022-09-02T22:03:41.566Z,99406.69
2022-09-02T22:06:31.318Z,99375.31
2022-09-02T22:09:10.116Z,99405.06
2022-09-02T22:11:43.843Z,99405.56
2022-09-02T22:14:22.429Z,99401.13
2022-09-02T22:16:55.986Z,99399.56
2022-09-02T22:19:30.421Z,99415.63
2022-09-02T22:22:16.151Z,99411.56
2022-09-02T22:24:58.040Z,99406.69
2022-09-02T22:27:34.048Z,99407.47
2022-09-02T22:30:19.026Z,99413.53
2022-09-02T22:33:02.576Z,99359.13
2022-09-02T22:35:58.643Z,99387.75
2022-09-02T22:38:52.023Z,99421.75
2022-09-02T22:41:30.546Z,99420.34
2022-09-02T22:44:09.566Z,99424.91
2022-09-02T22:47:21.971Z,99421.97
2022-09-02T22:50:15.733Z,99426.25
2022-09-02T22:52:46.701Z,99415.50
2022-09-02T22:55:32.996Z,99416.03
2022-09-02T22:58:30.853Z,99410.94
2022-09-02T23:01:04.490Z,99410.31
2022-09-02T23:03:48.040Z,99417.50
2022-09-02T23:06:31.668Z,99389.28
2022-09-02T23:09:08.802Z,99402.03
2022-09-02T23:12:02.314Z,99410.66
2022-09-02T23:15:14.468Z,99413.34
2022-09-02T23:17:57.713Z,99388.16
2022-09-02T23:20:45.278Z,99408.22
2022-09-02T23:23:26.138Z,99397.66
2022-09-02T23:26:08.266Z,99387.09
2022-09-02T23:28:54.293Z,99403.59
2022-09-02T23:31:54.137Z,99403.84
2022-09-02T23:34:43.667Z,99396.03
2022-09-02T23:37:37.819Z,99403.59
2022-09-02T23:40:16.916Z,99397.19
2022-09-02T23:42:43.795Z,99387.75
2022-09-02T23:45:21.715Z,99395.03
2022-09-02T23:47:51.410Z,99402.03
2022-09-02T23:50:47.161Z,99395.84
2022-09-02T23:53:29.870Z,99407.25
2022-09-02T23:56:29.831Z,99398.94
2022-09-02T23:59:14.282Z,99401.09
